In Rescue
 
Open Full Screen Window  High Contrast Mode
Wind Gusting 00 knots
07
October 25, 2021 3:25 PM EDT
Weather Information
Wind Direction
  140 °
Wind Speed
  07 kt (8 mph)
Wind Gust
  00 kt (0 mph)
Altimeter
29.82 in
Visibility
10 SM
Temperature
23° C
73° F
Dewpoint
16° C
61° F
Humidity
65%
1hr Rain Fall
00.00 in.
24hr Rain Fall
00.02 in.
Sky Condition
Clear
VFR

METAR KUKT 251925Z AUTO 14007KT 10SM CLR 23/16 A2982 RMK A01

FAA Disclaimer: The data displayed is for advisory purposes only and is not to be used for flight planning or operations.